Time;durP1;ratioP1;P1;durP2;ratioP2;P2;SDS_P1;SDS_P2;PMS_P1;PMS_P2;Temp;Humidity;BMP_temperature;BMP_pressure;BME280_temperature;BME280_humidity;BME280_pressure;Samples;Min_cycle;Max_cycle;Signal;HPM_P1;HPM_P2
2021/10/28 00:14:37;;;;;;;4.13;3.03;;;15.00;73.00;;;;;;4823725;29;20026;-82
2021/10/28 00:17:10;;;;;;;3.47;2.67;;;15.00;73.00;;;;;;4809599;29;20491;-82
2021/10/28 00:19:41;;;;;;;3.63;2.92;;;14.90;73.00;;;;;;4814689;29;20086;-83
2021/10/28 00:22:08;;;;;;;4.05;2.95;;;15.00;73.10;;;;;;4825326;29;20042;-82
2021/10/28 00:24:34;;;;;;;5.13;2.70;;;14.90;73.00;;;;;;4841122;29;20081;-83
2021/10/28 00:27:00;;;;;;;3.25;2.83;;;14.90;73.00;;;;;;4812010;29;20187;-83
2021/10/28 00:29:26;;;;;;;4.20;3.10;;;14.90;73.00;;;;;;4841107;29;20053;-81
2021/10/28 00:31:56;;;;;;;4.93;3.03;;;14.90;73.10;;;;;;4817582;29;20042;-83
2021/10/28 00:34:25;;;;;;;5.28;3.17;;;14.80;73.00;;;;;;4794974;29;20407;-82
2021/10/28 00:36:53;;;;;;;4.55;3.10;;;14.80;73.00;;;;;;4809765;29;20045;-83
2021/10/28 00:39:21;;;;;;;4.03;2.75;;;14.80;73.10;;;;;;4824419;29;20064;-81
2021/10/28 00:41:49;;;;;;;4.50;2.63;;;14.80;73.00;;;;;;4809726;29;20464;-83
2021/10/28 00:44:15;;;;;;;3.50;2.80;;;14.80;73.10;;;;;;4822243;29;20034;-82
2021/10/28 00:46:41;;;;;;;5.18;2.85;;;14.80;73.10;;;;;;4824671;29;20045;-83
2021/10/28 00:49:12;;;;;;;3.70;3.08;;;14.70;73.10;;;;;;4809643;29;20038;-83
2021/10/28 00:51:40;;;;;;;4.43;3.15;;;14.70;73.00;;;;;;4840762;29;20147;-83
2021/10/28 00:54:07;;;;;;;4.60;3.13;;;14.70;73.10;;;;;;4809574;29;20772;-82
2021/10/28 00:56:33;;;;;;;4.25;2.92;;;14.70;73.10;;;;;;4819469;29;20053;-82
2021/10/28 00:59:02;;;;;;;4.03;3.20;;;14.70;73.10;;;;;;4824987;29;20454;-83
2021/10/28 01:01:28;;;;;;;4.13;2.95;;;14.70;73.10;;;;;;4827497;29;20044;-82
2021/10/28 01:03:54;;;;;;;3.83;2.90;;;14.60;73.10;;;;;;4827551;29;20034;-81
2021/10/28 01:06:21;;;;;;;4.53;3.03;;;14.60;73.10;;;;;;4824865;29;20508;-82
2021/10/28 01:08:47;;;;;;;3.58;2.75;;;14.60;73.10;;;;;;4824849;29;20038;-83
2021/10/28 01:11:14;;;;;;;3.80;2.85;;;14.60;73.10;;;;;;4810942;29;20499;-82
2021/10/28 01:13:41;;;;;;;4.03;3.03;;;14.60;73.20;;;;;;4844643;29;20476;-82
2021/10/28 01:16:08;;;;;;;4.63;3.00;;;14.60;73.10;;;;;;4813327;29;20089;-83
2021/10/28 01:18:35;;;;;;;3.40;2.60;;;14.50;73.10;;;;;;4823096;29;20033;-82
2021/10/28 01:21:06;;;;;;;4.40;2.95;;;14.50;73.10;;;;;;4819873;29;20049;-83
2021/10/28 01:23:33;;;;;;;4.22;2.90;;;14.50;73.10;;;;;;4827858;29;20087;-82
2021/10/28 01:26:05;;;;;;;3.97;2.90;;;14.50;73.10;;;;;;4844252;29;20125;-82
2021/10/28 01:28:33;;;;;;;4.47;3.15;;;14.50;73.20;;;;;;4812550;29;20034;-81
2021/10/28 01:31:02;;;;;;;4.05;2.78;;;14.40;73.10;;;;;;4846933;29;20040;-83
2021/10/28 01:33:29;;;;;;;4.10;3.33;;;14.40;73.10;;;;;;4831021;29;20463;-81
2021/10/28 01:35:56;;;;;;;3.75;2.80;;;14.40;73.20;;;;;;4824412;29;20089;-82
2021/10/28 01:38:26;;;;;;;3.78;2.80;;;14.40;73.20;;;;;;4816310;29;20466;-83
2021/10/28 01:40:54;;;;;;;3.45;2.58;;;14.40;73.20;;;;;;4810374;29;20052;-81
2021/10/28 01:43:20;;;;;;;4.93;3.00;;;14.40;73.20;;;;;;4802703;29;20046;-82
2021/10/28 01:45:46;;;;;;;4.22;2.90;;;14.30;73.20;;;;;;4824183;29;20055;-81
2021/10/28 01:48:13;;;;;;;4.90;3.35;;;14.30;73.20;;;;;;4824555;29;20066;-81
2021/10/28 01:50:40;;;;;;;3.60;2.80;;;14.30;73.20;;;;;;4805274;29;20057;-82
2021/10/28 01:53:06;;;;;;;4.10;2.70;;;14.30;73.20;;;;;;4824639;29;20125;-82
2021/10/28 01:55:32;;;;;;;5.05;3.20;;;14.30;73.20;;;;;;4806433;29;20125;-81
2021/10/28 01:57:58;;;;;;;4.07;2.85;;;14.30;73.20;;;;;;4826676;29;20450;-82
2021/10/28 02:00:25;;;;;;;3.58;2.58;;;14.30;73.30;;;;;;4824239;29;20034;-82
2021/10/28 02:02:51;;;;;;;4.88;3.28;;;14.20;73.20;;;;;;4813508;29;20552;-81
2021/10/28 02:05:19;;;;;;;5.43;3.40;;;14.20;73.20;;;;;;4794653;29;20042;-82
2021/10/28 02:07:50;;;;;;;3.60;2.95;;;14.20;73.30;;;;;;4813858;29;20022;-82
2021/10/28 02:10:17;;;;;;;4.85;2.80;;;14.20;73.30;;;;;;4819200;29;20039;-82
2021/10/28 02:12:45;;;;;;;4.10;3.00;;;14.10;73.20;;;;;;4808500;29;20069;-82
2021/10/28 02:15:12;;;;;;;4.15;3.15;;;14.10;73.20;;;;;;4824181;29;20472;-82
2021/10/28 02:17:39;;;;;;;3.55;2.63;;;14.10;73.30;;;;;;4809174;29;20038;-82
2021/10/28 02:20:07;;;;;;;4.40;3.10;;;14.10;73.30;;;;;;4823721;29;20113;-82
2021/10/28 02:22:34;;;;;;;3.60;2.78;;;14.10;73.30;;;;;;4808046;29;20049;-82
2021/10/28 02:25:03;;;;;;;4.13;3.00;;;14.10;73.30;;;;;;4819608;29;20038;-82
2021/10/28 02:27:29;;;;;;;4.75;3.08;;;14.00;73.30;;;;;;4785902;29;20134;-81
2021/10/28 02:29:55;;;;;;;4.38;2.67;;;14.00;73.30;;;;;;4823697;29;20191;-81
2021/10/28 02:32:21;;;;;;;5.10;3.22;;;14.00;73.30;;;;;;4809030;29;20034;-80
2021/10/28 02:34:49;;;;;;;4.55;3.03;;;14.00;73.30;;;;;;4808365;29;20070;-82
2021/10/28 02:37:15;;;;;;;4.35;2.80;;;14.00;73.30;;;;;;4823773;29;20449;-82
2021/10/28 02:39:44;;;;;;;3.72;2.60;;;14.00;73.30;;;;;;4808412;29;20038;-82
2021/10/28 02:42:11;;;;;;;4.72;2.90;;;13.90;73.30;;;;;;4821700;29;20107;-81
2021/10/28 02:44:37;;;;;;;3.78;2.75;;;13.90;73.30;;;;;;4808139;29;20659;-81
2021/10/28 02:47:08;;;;;;;3.53;2.65;;;13.90;73.30;;;;;;4810286;29;20064;-81
2021/10/28 02:49:34;;;;;;;4.35;3.03;;;13.90;73.30;;;;;;4808239;29;20038;-82
2021/10/28 02:52:00;;;;;;;4.05;2.90;;;13.90;73.30;;;;;;4808690;29;20045;-81
2021/10/28 02:54:26;;;;;;;3.85;3.03;;;13.80;73.30;;;;;;4823335;29;20038;-82
2021/10/28 02:56:53;;;;;;;4.50;2.90;;;13.80;73.30;;;;;;4822445;29;20070;-81
2021/10/28 02:59:19;;;;;;;4.20;2.83;;;13.90;73.40;;;;;;4812683;29;20416;-82
2021/10/28 03:01:48;;;;;;;4.05;2.67;;;13.80;73.40;;;;;;4837997;29;20038;-82
2021/10/28 03:04:19;;;;;;;3.60;2.60;;;13.80;73.40;;;;;;4808538;29;20388;-81
2021/10/28 03:06:46;;;;;;;4.07;2.90;;;13.80;73.40;;;;;;4822568;29;20118;-82
2021/10/28 03:09:16;;;;;;;4.38;3.00;;;13.80;73.40;;;;;;4823272;29;20100;-81
2021/10/28 03:11:43;;;;;;;5.68;3.00;;;13.70;73.40;;;;;;4822058;29;20503;-81
2021/10/28 03:14:12;;;;;;;4.47;3.05;;;13.70;73.40;;;;;;4823514;29;20091;-81
2021/10/28 03:19:47;;;;;;;3.95;2.83;;;13.70;73.40;;;;;;4822158;29;20046;-81
2021/10/28 03:27:44;;;;;;;3.25;2.60;;;13.60;73.40;;;;;;4822871;29;20064;-82
2021/10/28 03:30:10;;;;;;;3.72;2.85;;;13.60;73.40;;;;;;4807060;29;20506;-81
2021/10/28 03:32:37;;;;;;;4.78;3.05;;;13.50;73.40;;;;;;4823675;29;20049;-81
2021/10/28 03:35:06;;;;;;;4.22;3.05;;;13.50;73.40;;;;;;4804173;29;20054;-81
2021/10/28 03:37:38;;;;;;;3.65;2.80;;;13.50;73.50;;;;;;4823082;29;20543;-82
2021/10/28 03:48:24;;;;;;;4.50;3.20;;;13.50;73.40;;;;;;4822982;29;20034;-80
2021/10/28 04:30:24;;;;;;;5.00;3.67;;;13.20;73.40;;;;;;4836281;29;20283;-82
2021/10/28 04:32:51;;;;;;;5.93;3.53;;;13.10;73.50;;;;;;4822679;29;20109;-81
2021/10/28 04:35:18;;;;;;;4.78;3.58;;;13.10;73.50;;;;;;4802101;29;20054;-82
2021/10/28 04:37:46;;;;;;;5.35;3.58;;;13.10;73.50;;;;;;4818276;29;20121;-81
2021/10/28 04:40:13;;;;;;;4.38;3.42;;;13.10;73.50;;;;;;4821445;29;20062;-81
2021/10/28 04:42:39;;;;;;;5.90;3.97;;;13.10;73.50;;;;;;4821754;29;20072;-82
2021/10/28 04:45:06;;;;;;;4.82;3.90;;;13.00;73.40;;;;;;4819735;29;20102;-79
2021/10/28 04:47:32;;;;;;;5.00;3.67;;;13.00;73.40;;;;;;4804868;29;20034;-79
2021/10/28 04:49:58;;;;;;;4.63;3.55;;;13.00;73.50;;;;;;4819920;29;20373;-84
2021/10/28 04:52:24;;;;;;;5.05;3.70;;;13.00;73.50;;;;;;4820759;29;20046;-77
2021/10/28 04:54:50;;;;;;;4.78;3.65;;;13.00;73.50;;;;;;4819952;29;20449;-78
2021/10/28 04:57:16;;;;;;;4.80;3.42;;;13.00;73.50;;;;;;4787185;29;20058;-79
2021/10/28 04:59:43;;;;;;;5.60;3.90;;;12.90;73.50;;;;;;4819240;29;20031;-79
2021/10/28 05:02:09;;;;;;;4.97;3.50;;;12.90;73.50;;;;;;4819639;29;20019;-79
2021/10/28 05:04:35;;;;;;;5.68;3.95;;;12.90;73.50;;;;;;4819609;29;20054;-78
2021/10/28 05:07:00;;;;;;;4.97;3.70;;;12.90;73.60;;;;;;4820058;29;20495;-79
2021/10/28 05:09:30;;;;;;;5.07;3.45;;;12.90;73.50;;;;;;4817255;29;20035;-79
2021/10/28 05:11:56;;;;;;;4.97;3.60;;;12.90;73.60;;;;;;4834830;29;20039;-79
2021/10/28 05:14:23;;;;;;;5.07;4.07;;;12.90;73.60;;;;;;4804740;29;20487;-79
2021/10/28 05:16:59;;;;;;;5.60;4.13;;;12.80;73.60;;;;;;4819315;29;20115;-80
2021/10/28 05:19:26;;;;;;;5.63;3.92;;;12.80;73.60;;;;;;4821125;29;20129;-79
2021/10/28 05:21:51;;;;;;;5.13;3.75;;;12.80;73.60;;;;;;4819543;29;20073;-78
2021/10/28 05:24:17;;;;;;;5.13;3.88;;;12.80;73.60;;;;;;4819878;29;20542;-79
2021/10/28 05:26:43;;;;;;;6.25;4.00;;;12.80;73.70;;;;;;4818411;29;20468;-82
2021/10/28 05:29:09;;;;;;;6.20;4.32;;;12.80;73.70;;;;;;4820265;29;20035;-78
2021/10/28 05:31:35;;;;;;;5.50;3.92;;;12.80;73.70;;;;;;4801509;29;20042;-78
2021/10/28 05:34:01;;;;;;;5.38;3.88;;;12.70;73.70;;;;;;4834836;29;20049;-80
2021/10/28 05:36:26;;;;;;;4.95;3.92;;;12.70;73.70;;;;;;4819902;29;20495;-78
2021/10/28 05:38:53;;;;;;;5.60;4.03;;;12.70;73.70;;;;;;4821683;29;20034;-78
2021/10/28 05:41:19;;;;;;;5.40;3.70;;;12.70;73.80;;;;;;4820731;29;20030;-78
2021/10/28 05:43:45;;;;;;;5.68;4.15;;;12.70;73.80;;;;;;4812870;29;20033;-78
2021/10/28 05:46:11;;;;;;;5.75;3.90;;;12.70;73.80;;;;;;4821297;29;20047;-78
2021/10/28 05:48:36;;;;;;;5.55;3.67;;;12.60;73.70;;;;;;4821020;29;20050;-78
2021/10/28 05:51:03;;;;;;;5.93;4.32;;;12.70;73.80;;;;;;4805379;29;20555;-78
2021/10/28 05:53:28;;;;;;;6.30;4.07;;;12.70;73.80;;;;;;4822211;29;20480;-78
2021/10/28 05:55:54;;;;;;;5.43;3.90;;;12.60;73.80;;;;;;4820416;29;20099;-79
2021/10/28 05:58:20;;;;;;;5.85;4.15;;;12.60;73.80;;;;;;4822878;29;20067;-79
2021/10/28 06:00:46;;;;;;;6.15;4.50;;;12.60;73.80;;;;;;4808947;29;20038;-79
2021/10/28 06:03:12;;;;;;;6.40;4.20;;;12.60;73.80;;;;;;4816342;29;20045;-78
2021/10/28 06:05:38;;;;;;;5.63;3.95;;;12.60;73.90;;;;;;4809416;29;20038;-79
2021/10/28 06:08:04;;;;;;;5.38;4.00;;;12.60;73.90;;;;;;4823602;29;20042;-78
2021/10/28 06:10:30;;;;;;;5.60;3.95;;;12.60;73.90;;;;;;4824904;29;20028;-80
2021/10/28 06:13:00;;;;;;;6.35;4.38;;;12.60;73.90;;;;;;4808230;29;20050;-79
2021/10/28 06:15:28;;;;;;;6.10;4.40;;;12.50;73.90;;;;;;4808624;29;20057;-78
2021/10/28 06:18:12;;;;;;;5.85;3.92;;;12.50;73.90;;;;;;4823244;29;20404;-79
2021/10/28 06:20:38;;;;;;;5.95;4.07;;;12.50;73.90;;;;;;4819633;29;20091;-78
2021/10/28 06:23:04;;;;;;;5.75;4.10;;;12.50;73.90;;;;;;4823145;29;20038;-77
2021/10/28 06:25:30;;;;;;;6.82;4.60;;;12.50;73.90;;;;;;4808388;29;20078;-78
2021/10/28 06:27:55;;;;;;;5.38;4.15;;;12.50;73.90;;;;;;4808416;29;20035;-78
2021/10/28 06:30:22;;;;;;;5.90;4.15;;;12.50;73.90;;;;;;4808619;29;20034;-79
2021/10/28 06:32:54;;;;;;;8.00;4.22;;;12.50;74.00;;;;;;4808188;29;20490;-79
2021/10/28 06:35:21;;;;;;;5.75;4.22;;;12.40;73.90;;;;;;4834442;29;20061;-78
2021/10/28 06:37:49;;;;;;;5.95;4.13;;;12.50;74.00;;;;;;4818668;29;20032;-78
2021/10/28 06:40:18;;;;;;;5.80;4.40;;;12.40;74.00;;;;;;4826862;29;20045;-78
2021/10/28 06:42:44;;;;;;;5.65;4.07;;;12.40;74.00;;;;;;4826367;29;20149;-78
2021/10/28 06:45:11;;;;;;;5.57;3.88;;;12.40;74.00;;;;;;4825837;29;20133;-78
2021/10/28 06:47:36;;;;;;;5.55;4.07;;;12.40;74.60;;;;;;4810234;29;20040;-77
2021/10/28 06:50:07;;;;;;;5.43;4.18;;;12.40;74.00;;;;;;4842593;29;21012;-77
2021/10/28 06:52:59;;;;;;;6.90;4.72;;;12.40;74.10;;;;;;4818323;29;20408;-77
2021/10/28 06:55:48;;;;;;;5.57;4.13;;;12.40;74.10;;;;;;4843200;29;20046;-78
2021/10/28 07:03:28;;;;;;;5.60;3.92;;;12.30;74.00;;;;;;4826536;29;20048;-80
2021/10/28 07:06:09;;;;;;;6.72;4.38;;;12.30;74.00;;;;;;4818535;29;20045;-80
2021/10/28 07:08:38;;;;;;;5.47;3.85;;;12.30;74.10;;;;;;4827370;29;20037;-79
2021/10/28 07:11:09;;;;;;;5.80;4.22;;;12.30;74.10;;;;;;4841861;29;20117;-79
2021/10/28 07:13:36;;;;;;;6.80;4.20;;;12.30;74.10;;;;;;4818805;29;20031;-79
2021/10/28 07:19:00;;;;;;;5.50;4.00;;;12.30;74.20;;;;;;4842635;29;20038;-79
2021/10/28 07:21:44;;;;;;;6.00;3.97;;;12.30;74.10;;;;;;4804757;29;20041;-78
2021/10/28 07:32:09;;;;;;;6.53;4.60;;;12.20;74.10;;;;;;4825177;29;20034;-79
2021/10/28 07:59:50;;;;;;;5.40;3.83;;;12.10;74.30;;;;;;4841721;29;20042;-79
2021/10/28 08:16:23;;;;;;;6.75;4.45;;;12.10;74.50;;;;;;4824873;29;20038;-79
2021/10/28 08:21:25;;;;;;;7.10;4.90;;;12.20;74.60;;;;;;4839849;29;20449;-79
2021/10/28 08:29:22;;;;;;;6.13;4.13;;;12.10;74.60;;;;;;4834552;29;20030;-79
2021/10/28 08:31:51;;;;;;;5.40;3.75;;;12.20;74.60;;;;;;4809328;29;20034;-79
2021/10/28 08:34:37;;;;;;;6.18;4.10;;;12.20;74.70;;;;;;4824219;29;20085;-79
2021/10/28 08:37:14;;;;;;;5.63;4.13;;;12.20;74.70;;;;;;4837791;29;20108;-80
2021/10/28 08:39:49;;;;;;;6.15;4.32;;;12.20;74.70;;;;;;4816904;29;20061;-80
2021/10/28 08:42:19;;;;;;;6.85;4.55;;;12.20;74.80;;;;;;4823972;29;20527;-80
2021/10/28 08:44:50;;;;;;;6.25;3.88;;;12.20;74.80;;;;;;4824387;29;20045;-80
2021/10/28 08:47:17;;;;;;;5.90;3.80;;;12.20;74.80;;;;;;4840086;29;20045;-80
2021/10/28 08:49:56;;;;;;;8.40;4.30;;;12.20;74.90;;;;;;4801683;29;20036;-80
2021/10/28 08:52:47;;;;;;;5.82;3.90;;;12.20;74.90;;;;;;4818521;29;20030;-80
2021/10/28 09:25:39;;;;;;;6.43;4.30;;;12.50;75.20;;;;;;4812907;29;20098;-80
2021/10/28 09:28:42;;;;;;;6.60;4.72;;;12.50;75.20;;;;;;4823565;29;20058;-80
2021/10/28 09:31:13;;;;;;;5.93;4.15;;;12.60;75.40;;;;;;4840093;29;20045;-81
2021/10/28 09:47:49;;;;;;;5.90;4.00;;;12.90;75.20;;;;;;4828769;29;20064;-88
2021/10/28 09:50:59;;;;;;;6.28;3.95;;;12.90;75.30;;;;;;4841525;29;20063;-80
2021/10/28 09:53:22;;;;;;;6.50;4.05;;;12.90;75.20;;;;;;4812456;29;20090;-77
2021/10/28 09:58:27;;;;;;;6.57;4.53;;;13.00;75.30;;;;;;4843307;29;20034;-81
2021/10/28 10:00:54;;;;;;;6.28;4.30;;;13.10;75.50;;;;;;4819939;29;20090;-77
2021/10/28 10:03:24;;;;;;;6.88;4.53;;;13.10;75.40;;;;;;4824985;29;20050;-79
2021/10/28 10:06:17;;;;;;;6.38;4.60;;;13.10;75.50;;;;;;4818809;29;20026;-81
2021/10/28 10:08:41;;;;;;;5.75;4.13;;;13.20;75.60;;;;;;4841999;29;20470;-79
2021/10/28 10:11:07;;;;;;;7.05;4.93;;;13.20;75.60;;;;;;4826636;29;20059;-79
2021/10/28 10:13:33;;;;;;;6.13;4.57;;;13.20;75.60;;;;;;4826700;29;20071;-80
2021/10/28 10:16:01;;;;;;;6.22;4.45;;;13.30;75.70;;;;;;4826302;29;20098;-78
2021/10/28 10:18:32;;;;;;;7.28;4.75;;;13.30;75.80;;;;;;4824395;29;20034;-79
2021/10/28 10:21:20;;;;;;;7.15;4.70;;;13.40;75.90;;;;;;4827472;29;20540;-82
2021/10/28 10:24:10;;;;;;;6.20;4.47;;;13.40;75.90;;;;;;4812231;29;20037;-79
2021/10/28 10:30:09;;;;;;;6.68;4.63;;;13.40;76.10;;;;;;4833788;29;20054;-81
2021/10/28 11:23:09;;;;;;;7.20;5.13;;;13.90;76.50;;;;;;4836392;29;20033;-83
2021/10/28 11:28:35;;;;;;;7.05;4.88;;;14.00;76.40;;;;;;4840789;29;20033;-86
2021/10/28 12:14:29;;;;;;;8.82;5.35;;;14.30;76.50;;;;;;4818082;29;20053;-78
2021/10/28 12:21:14;;;;;;;7.95;5.18;;;14.50;76.40;;;;;;4838933;29;20453;-82
2021/10/28 12:44:44;;;;;;;9.98;6.13;;;14.80;76.40;;;;;;4816710;29;20045;-86
2021/10/28 12:53:10;;;;;;;8.73;6.20;;;14.90;76.60;;;;;;4824278;29;20041;-80
2021/10/28 13:36:18;;;;;;;8.45;5.88;;;15.50;76.60;;;;;;4814179;29;20475;-80
2021/10/28 15:02:17;;;;;;;5.55;3.85;;;16.60;75.70;;;;;;4820317;29;20053;-82
2021/10/28 15:29:22;;;;;;;5.37;3.63;;;17.00;75.00;;;;;;4825787;29;20448;-81
2021/10/28 15:37:15;;;;;;;5.78;3.72;;;17.10;74.80;;;;;;4826834;29;20072;-86
2021/10/28 15:39:55;;;;;;;5.95;3.85;;;17.10;74.80;;;;;;4820463;29;20034;-85
2021/10/28 15:42:39;;;;;;;5.53;4.13;;;17.10;74.70;;;;;;4812812;29;20065;-81
2021/10/28 15:49:10;;;;;;;5.00;3.80;;;17.20;74.50;;;;;;4834604;29;20049;-80
2021/10/28 15:54:35;;;;;;;5.88;3.80;;;17.30;74.50;;;;;;4836129;29;20045;-81
2021/10/28 16:23:30;;;;;;;5.40;3.60;;;17.30;73.70;;;;;;5089734;28;20036;-82
2021/10/28 16:25:56;;;;;;;4.43;3.33;;;17.30;73.80;;;;;;5085848;28;20421;-82
2021/10/28 16:28:25;;;;;;;5.38;3.58;;;17.30;73.80;;;;;;5085105;28;20496;-82
2021/10/28 16:30:50;;;;;;;5.03;3.58;;;17.20;73.80;;;;;;5070076;27;20373;-81
2021/10/28 16:33:16;;;;;;;4.75;3.40;;;17.20;73.70;;;;;;5079216;28;20043;-82
2021/10/28 16:35:43;;;;;;;4.90;3.22;;;17.30;73.70;;;;;;5083027;28;20024;-82
2021/10/28 16:38:10;;;;;;;4.93;3.35;;;17.20;73.60;;;;;;5082707;28;20111;-82
2021/10/28 16:40:37;;;;;;;4.85;3.47;;;17.30;73.70;;;;;;5107454;28;20036;-82
2021/10/28 16:43:03;;;;;;;4.80;3.22;;;17.20;73.50;;;;;;5086146;28;20102;-81
2021/10/28 16:45:28;;;;;;;4.90;3.38;;;17.30;73.60;;;;;;5091449;28;20024;-81
2021/10/28 16:47:54;;;;;;;5.30;3.88;;;17.20;73.40;;;;;;5091235;27;20076;-80
2021/10/28 16:50:20;;;;;;;6.00;3.42;;;17.30;73.40;;;;;;5091598;28;20027;-80
2021/10/28 16:52:46;;;;;;;4.20;3.20;;;17.20;73.40;;;;;;5090813;27;20044;-81
2021/10/28 16:55:12;;;;;;;5.05;3.55;;;17.20;73.30;;;;;;5095941;28;20043;-81
2021/10/28 16:57:38;;;;;;;4.72;3.38;;;17.20;73.30;;;;;;5085746;28;20051;-81
2021/10/28 17:00:06;;;;;;;4.80;3.30;;;17.20;73.30;;;;;;5079625;28;20488;-81
2021/10/28 17:02:33;;;;;;;4.55;3.38;;;17.20;73.20;;;;;;5082170;27;20041;-82
2021/10/28 17:04:59;;;;;;;5.60;3.83;;;17.20;73.20;;;;;;5072530;28;20071;-81
2021/10/28 17:07:25;;;;;;;5.03;3.50;;;17.10;73.10;;;;;;5089950;27;20063;-83
2021/10/28 17:09:52;;;;;;;5.70;3.35;;;17.10;73.10;;;;;;5087114;28;20435;-82
2021/10/28 17:12:20;;;;;;;5.57;3.63;;;17.10;73.10;;;;;;5088402;27;20040;-82
2021/10/28 17:14:46;;;;;;;5.20;3.55;;;17.10;73.10;;;;;;5070227;28;20056;-82
2021/10/28 17:17:11;;;;;;;5.13;3.20;;;17.10;73.10;;;;;;5083396;28;20067;-82
2021/10/28 17:19:38;;;;;;;5.10;3.33;;;17.10;73.00;;;;;;5077804;28;20094;-82
2021/10/28 17:22:06;;;;;;;5.20;3.58;;;17.00;73.00;;;;;;5088636;28;20052;-82
2021/10/28 17:26:57;;;;;;;4.95;3.30;;;17.00;72.90;;;;;;5094166;27;20043;-81
2021/10/28 17:29:23;;;;;;;5.03;3.72;;;17.00;72.90;;;;;;5081541;28;20365;-82
2021/10/28 17:31:51;;;;;;;5.00;3.35;;;17.00;72.90;;;;;;5074752;28;20103;-81
2021/10/28 17:34:18;;;;;;;4.93;3.70;;;16.90;72.90;;;;;;5055699;28;20033;-82
2021/10/28 17:36:48;;;;;;;5.25;3.53;;;16.90;72.80;;;;;;5059754;28;20039;-82
2021/10/28 17:39:14;;;;;;;5.05;3.53;;;16.90;72.80;;;;;;5053846;28;20049;-81
2021/10/28 17:41:40;;;;;;;6.00;3.50;;;16.90;72.80;;;;;;5059334;28;20033;-82
2021/10/28 17:44:07;;;;;;;5.07;3.58;;;16.90;73.40;;;;;;5029731;28;20516;-82
2021/10/28 17:46:33;;;;;;;4.82;3.25;;;16.90;72.80;;;;;;5074454;28;20025;-83
2021/10/28 17:49:00;;;;;;;5.65;3.97;;;16.80;72.80;;;;;;5090084;28;20068;-81
2021/10/28 17:51:25;;;;;;;5.15;3.47;;;16.80;72.80;;;;;;5072059;28;20085;-83
2021/10/28 17:53:51;;;;;;;6.03;3.47;;;16.80;72.80;;;;;;5069621;28;20040;-81
2021/10/28 17:56:18;;;;;;;4.43;3.30;;;16.70;72.70;;;;;;5072043;28;20032;-81
2021/10/28 17:58:44;;;;;;;4.65;3.40;;;16.80;72.80;;;;;;5075784;28;20044;-82
2021/10/28 18:01:15;;;;;;;5.22;3.53;;;16.80;72.80;;;;;;5070077;28;20036;-82
2021/10/28 18:03:41;;;;;;;4.75;3.22;;;16.70;72.70;;;;;;5076081;28;20048;-82
2021/10/28 18:06:07;;;;;;;4.40;3.35;;;16.70;72.70;;;;;;5033238;28;20025;-82
2021/10/28 18:08:34;;;;;;;6.25;3.97;;;16.70;72.70;;;;;;5082801;28;20161;-82
2021/10/28 18:11:01;;;;;;;4.63;3.60;;;16.70;72.70;;;;;;5064770;28;20022;-81
2021/10/28 18:13:27;;;;;;;5.97;3.35;;;16.60;72.70;;;;;;5078442;27;20060;-82
2021/10/28 18:15:53;;;;;;;5.28;3.63;;;16.60;72.70;;;;;;5053755;28;20554;-81
2021/10/28 18:18:19;;;;;;;5.53;3.75;;;16.60;72.70;;;;;;5081080;27;20123;-80
2021/10/28 18:20:46;;;;;;;5.22;3.92;;;16.50;72.60;;;;;;5032326;28;20128;-80
2021/10/28 18:23:12;;;;;;;4.88;3.35;;;16.50;72.60;;;;;;5084923;28;20041;-82
2021/10/28 18:25:38;;;;;;;4.75;3.67;;;16.50;72.60;;;;;;5053086;28;20033;-83
2021/10/28 18:28:04;;;;;;;5.40;3.83;;;16.50;72.60;;;;;;5061204;28;20025;-85
2021/10/28 18:30:34;;;;;;;5.45;3.88;;;16.50;72.60;;;;;;5067182;28;20456;-83
2021/10/28 18:33:00;;;;;;;5.45;3.83;;;16.50;72.60;;;;;;5068034;28;20021;-83
2021/10/28 18:35:26;;;;;;;4.63;3.50;;;16.50;72.60;;;;;;5065800;28;20107;-84
2021/10/28 18:37:51;;;;;;;5.88;3.92;;;16.40;72.60;;;;;;5068887;28;20092;-83
2021/10/28 18:40:18;;;;;;;5.45;3.90;;;16.40;72.60;;;;;;5064309;28;20097;-83
2021/10/28 18:42:45;;;;;;;5.53;4.28;;;16.30;72.60;;;;;;5056033;28;20025;-81
2021/10/28 18:45:12;;;;;;;4.88;3.65;;;16.30;72.60;;;;;;5060808;28;20045;-83
2021/10/28 18:47:37;;;;;;;5.00;3.92;;;16.30;72.60;;;;;;5050509;28;20044;-85
2021/10/28 18:50:06;;;;;;;5.55;3.80;;;16.30;72.60;;;;;;5057304;28;20036;-84
2021/10/28 18:52:35;;;;;;;6.00;3.72;;;16.30;72.60;;;;;;5062661;28;20021;-83
2021/10/28 18:55:01;;;;;;;5.18;3.95;;;16.30;72.60;;;;;;5045103;28;20035;-83
2021/10/28 18:57:27;;;;;;;4.93;3.90;;;16.30;72.70;;;;;;5055294;28;20025;-83
2021/10/28 18:59:54;;;;;;;5.05;4.13;;;16.20;72.60;;;;;;5059665;28;20051;-82
2021/10/28 19:02:20;;;;;;;5.30;3.72;;;16.20;72.60;;;;;;5040422;28;20024;-83
2021/10/28 19:04:48;;;;;;;6.03;3.83;;;16.20;72.60;;;;;;5059141;28;20093;-83
2021/10/28 19:07:15;;;;;;;7.22;4.28;;;16.20;72.70;;;;;;5062536;28;20048;-83
2021/10/28 19:09:40;;;;;;;6.00;4.00;;;16.20;72.70;;;;;;5071926;28;20483;-81
2021/10/28 19:12:06;;;;;;;5.88;4.50;;;16.10;72.60;;;;;;5066963;28;20035;-81
2021/10/28 19:14:35;;;;;;;5.75;4.15;;;16.10;72.60;;;;;;5063869;28;20061;-81
2021/10/28 19:17:00;;;;;;;5.35;3.95;;;16.10;72.70;;;;;;5061676;28;20020;-80
2021/10/28 19:19:26;;;;;;;6.28;4.80;;;16.10;72.70;;;;;;5077067;28;20851;-81
2021/10/28 19:21:52;;;;;;;5.90;4.38;;;16.00;72.60;;;;;;5066592;28;20039;-81
2021/10/28 19:24:18;;;;;;;6.53;4.28;;;16.00;72.60;;;;;;5071069;28;20052;-81
2021/10/28 19:26:43;;;;;;;5.43;4.10;;;16.00;72.70;;;;;;5074693;28;20028;-80
2021/10/28 19:29:10;;;;;;;6.40;4.47;;;16.00;72.70;;;;;;5059129;27;20120;-80
2021/10/28 19:31:51;;;;;;;5.78;4.07;;;16.00;72.70;;;;;;5064221;28;20039;-81
2021/10/28 19:34:17;;;;;;;5.55;3.92;;;15.90;72.70;;;;;;5063728;28;20037;-82
2021/10/28 19:36:55;;;;;;;5.35;3.97;;;15.90;72.70;;;;;;5077051;28;20035;-81
2021/10/28 19:39:47;;;;;;;5.95;4.38;;;15.90;72.70;;;;;;5068812;28;20496;-83
2021/10/28 19:45:04;;;;;;;6.07;4.28;;;15.90;72.70;;;;;;5065999;28;20041;-81
2021/10/28 19:47:56;;;;;;;5.82;4.28;;;15.80;72.70;;;;;;5050291;28;20060;-82
2021/10/28 19:50:21;;;;;;;5.45;4.10;;;15.80;72.70;;;;;;5065035;28;20036;-81
2021/10/28 19:52:47;;;;;;;5.82;4.32;;;15.80;72.80;;;;;;5061405;28;20032;-82
2021/10/28 19:55:14;;;;;;;5.38;4.00;;;15.70;72.80;;;;;;5036110;28;20052;-82
2021/10/28 19:57:47;;;;;;;5.35;4.07;;;15.70;72.80;;;;;;5056617;28;20036;-82
2021/10/28 20:21:30;;;;;;;6.22;4.32;;;15.50;72.90;;;;;;5064094;28;20041;-82
2021/10/28 20:23:56;;;;;;;6.53;4.80;;;15.60;72.90;;;;;;5035202;28;20515;-81
2021/10/28 20:26:23;;;;;;;7.13;4.90;;;15.50;72.90;;;;;;5062697;28;20068;-82
2021/10/28 20:28:50;;;;;;;6.20;4.78;;;15.50;72.90;;;;;;5071434;28;20111;-81
2021/10/28 20:31:19;;;;;;;6.75;4.65;;;15.50;72.90;;;;;;5054301;28;20141;-83
2021/10/28 20:33:52;;;;;;;6.13;4.57;;;15.50;73.00;;;;;;5070908;28;20485;-83
2021/10/28 20:38:46;;;;;;;6.25;4.60;;;15.50;72.90;;;;;;5072000;28;20043;-82
2021/10/28 20:41:12;;;;;;;5.95;4.97;;;15.40;72.90;;;;;;5043975;28;20036;-80
2021/10/28 20:43:38;;;;;;;6.35;4.97;;;15.40;72.90;;;;;;5067380;28;20033;-81
2021/10/28 20:46:04;;;;;;;6.90;5.13;;;15.40;72.90;;;;;;5071393;28;20029;-82
2021/10/28 20:48:31;;;;;;;6.40;4.80;;;15.40;72.90;;;;;;5046728;28;20024;-85
2021/10/28 20:50:57;;;;;;;6.90;4.35;;;15.40;73.00;;;;;;5067714;28;20075;-87
2021/10/28 20:53:23;;;;;;;7.28;5.18;;;15.40;72.90;;;;;;5052226;28;20082;-85
2021/10/28 20:55:49;;;;;;;6.32;4.68;;;15.30;72.90;;;;;;5063237;28;20062;-87
2021/10/28 20:58:16;;;;;;;7.10;5.00;;;15.30;72.90;;;;;;5069991;28;20028;-86
2021/10/28 21:00:47;;;;;;;6.47;4.70;;;15.30;72.90;;;;;;5061017;28;20036;-86
2021/10/28 21:03:14;;;;;;;7.03;5.20;;;15.30;72.90;;;;;;5070796;28;20041;-86
2021/10/28 21:05:40;;;;;;;6.65;5.13;;;15.30;72.90;;;;;;5060878;28;20040;-85
2021/10/28 21:08:06;;;;;;;6.50;4.90;;;15.30;72.90;;;;;;5045258;28;20021;-86
2021/10/28 21:10:33;;;;;;;6.90;5.43;;;15.30;72.90;;;;;;5041966;28;20115;-86
2021/10/28 21:12:59;;;;;;;6.25;4.97;;;15.20;72.90;;;;;;5073361;28;20096;-84
2021/10/28 21:15:26;;;;;;;7.32;5.13;;;15.20;72.90;;;;;;5058969;28;20431;-84
2021/10/28 21:17:52;;;;;;;6.47;4.95;;;15.20;72.90;;;;;;5075981;28;20021;-85
2021/10/28 21:20:18;;;;;;;6.72;5.20;;;15.20;72.90;;;;;;5078171;28;20488;-83
2021/10/28 21:22:44;;;;;;;6.85;5.07;;;15.20;72.90;;;;;;5060430;28;20043;-85
2021/10/28 21:25:12;;;;;;;6.80;4.85;;;15.20;72.90;;;;;;5074478;28;20172;-87
2021/10/28 21:27:39;;;;;;;7.53;5.63;;;15.10;72.90;;;;;;5070995;28;20060;-85
2021/10/28 21:30:08;;;;;;;6.55;5.00;;;15.10;72.90;;;;;;5052975;28;20040;-85
2021/10/28 21:32:36;;;;;;;5.82;4.72;;;15.10;72.90;;;;;;5062339;28;20036;-86
2021/10/28 21:35:04;;;;;;;6.47;5.07;;;15.10;72.90;;;;;;5063478;28;20021;-87
2021/10/28 21:37:30;;;;;;;7.40;5.38;;;15.10;72.90;;;;;;5037710;28;20078;-87
2021/10/28 21:39:56;;;;;;;7.05;5.28;;;15.00;72.80;;;;;;5062245;28;20067;-86
2021/10/28 21:42:23;;;;;;;7.25;5.60;;;15.00;72.90;;;;;;5074455;28;20029;-86